createdAt,value
2022-09-23T00:07:00.658Z,15.20
2022-09-23T00:17:04.024Z,15.10
2022-09-23T00:27:06.052Z,15.10
2022-09-23T00:37:09.361Z,15.10
2022-09-23T00:47:18.490Z,15.00
2022-09-23T00:57:23.623Z,15.00
2022-09-23T01:07:25.539Z,15.00
2022-09-23T01:17:37.774Z,14.90
2022-09-23T01:27:56.993Z,14.90
2022-09-23T01:38:10.525Z,14.80
2022-09-23T01:48:17.692Z,14.80
2022-09-23T01:58:25.066Z,14.80
2022-09-23T02:08:31.909Z,14.70
2022-09-23T02:18:42.972Z,14.70
2022-09-23T02:28:51.666Z,14.70
2022-09-23T02:38:57.797Z,14.70
2022-09-23T02:49:04.118Z,14.70
2022-09-23T02:59:08.930Z,14.70
2022-09-23T03:09:18.079Z,14.80
2022-09-23T03:19:26.977Z,14.80
2022-09-23T03:29:29.761Z,14.80
2022-09-23T03:39:36.875Z,14.80
2022-09-23T03:49:42.702Z,14.80
2022-09-23T03:59:46.128Z,14.70
2022-09-23T04:09:48.025Z,14.70
2022-09-23T04:19:51.267Z,14.70
2022-09-23T04:29:53.231Z,14.70
2022-09-23T04:39:56.492Z,14.60
2022-09-23T04:49:59.935Z,14.60
2022-09-23T05:00:04.523Z,14.50
2022-09-23T05:10:08.053Z,14.40
2022-09-23T05:20:11.506Z,14.40
2022-09-23T05:30:13.546Z,14.40
2022-09-23T05:40:17.081Z,14.40
2022-09-23T05:50:19.061Z,14.40
2022-09-23T06:00:22.336Z,14.50
2022-09-23T06:10:24.287Z,14.50
2022-09-23T06:20:27.857Z,14.60
2022-09-23T06:30:29.901Z,14.70
2022-09-23T06:40:33.359Z,14.70
2022-09-23T06:50:36.097Z,14.70
2022-09-23T07:00:39.547Z,14.80
2022-09-23T07:10:41.474Z,14.90
2022-09-23T07:20:44.834Z,14.90
2022-09-23T07:30:58.435Z,15.10
2022-09-23T07:41:05.587Z,15.30
2022-09-23T07:51:08.444Z,15.30
2022-09-23T08:01:12.756Z,15.40
2022-09-23T08:11:14.742Z,15.50
2022-09-23T08:21:21.612Z,15.50
2022-09-23T08:31:23.943Z,15.60
2022-09-23T08:41:35.941Z,15.70
2022-09-23T08:51:44.100Z,15.80
2022-09-23T09:01:51.867Z,15.80
2022-09-23T09:12:01.702Z,15.90
2022-09-23T09:22:09.623Z,16.00
2022-09-23T09:32:22.367Z,16.00
2022-09-23T09:42:32.541Z,16.00
2022-09-23T09:52:38.633Z,16.20
2022-09-23T10:02:41.972Z,16.50
2022-09-23T10:12:45.458Z,16.30
2022-09-23T10:22:49.206Z,15.90
2022-09-23T10:32:52.192Z,15.80
2022-09-23T10:43:07.555Z,16.00
2022-09-23T10:53:22.446Z,16.00
2022-09-23T11:03:51.658Z,16.00
2022-09-23T11:14:20.033Z,16.00
2022-09-23T11:24:46.508Z,16.10
2022-09-23T11:35:01.847Z,16.40
2022-09-23T11:45:14.349Z,16.80
2022-09-23T11:55:22.653Z,17.20
2022-09-23T12:05:30.858Z,17.60
2022-09-23T12:15:45.083Z,17.60
2022-09-23T12:25:52.559Z,17.20
2022-09-23T12:35:56.325Z,17.00
2022-09-23T12:46:19.623Z,16.90
2022-09-23T12:56:24.911Z,17.30
2022-09-23T13:06:37.891Z,17.60
2022-09-23T13:16:42.932Z,17.50
2022-09-23T13:26:48.938Z,17.40
2022-09-23T13:36:50.878Z,17.50
2022-09-23T13:46:58.232Z,17.70
2022-09-23T13:57:00.918Z,17.90
2022-09-23T14:07:06.817Z,17.90
2022-09-23T14:17:14.109Z,18.00
2022-09-23T14:27:27.705Z,18.20
2022-09-23T14:37:32.733Z,18.00
2022-09-23T14:47:37.124Z,18.10
2022-09-23T14:57:39.700Z,18.10
2022-09-23T15:07:44.295Z,18.10
2022-09-23T15:17:46.709Z,18.00
2022-09-23T15:28:15.802Z,17.90
2022-09-23T15:38:17.792Z,17.90
2022-09-23T15:48:23.449Z,18.10
2022-09-23T15:58:25.464Z,18.90
2022-09-23T16:08:29.408Z,19.40
2022-09-23T16:18:31.336Z,19.30
2022-09-23T16:28:34.634Z,18.80
2022-09-23T16:38:36.641Z,18.60
2022-09-23T16:48:40.347Z,18.30
2022-09-23T16:58:42.547Z,17.80
2022-09-23T17:08:46.193Z,17.60
2022-09-23T17:18:48.106Z,17.40
2022-09-23T17:28:52.311Z,17.20
2022-09-23T17:38:54.526Z,16.90
2022-09-23T17:48:58.203Z,16.70
2022-09-23T17:59:01.088Z,16.50
2022-09-23T18:09:06.565Z,16.30
2022-09-23T18:19:11.519Z,16.30
2022-09-23T18:29:14.790Z,16.30
2022-09-23T18:39:17.903Z,16.30
2022-09-23T18:49:21.202Z,16.30
2022-09-23T18:59:24.453Z,16.40
2022-09-23T19:09:27.742Z,16.40
2022-09-23T19:19:29.660Z,16.40
2022-09-23T19:29:33.045Z,16.30
2022-09-23T19:39:34.943Z,16.20
2022-09-23T19:49:38.234Z,16.20
2022-09-23T19:59:40.456Z,16.20
2022-09-23T20:09:43.750Z,16.10
2022-09-23T20:19:45.664Z,16.00
2022-09-23T20:29:49.364Z,15.90
2022-09-23T20:39:52.350Z,15.70
2022-09-23T20:49:55.642Z,15.60
2022-09-23T20:59:57.594Z,15.50
2022-09-23T21:10:00.868Z,15.40
2022-09-23T21:20:03.284Z,15.30
2022-09-23T21:30:07.969Z,15.20
2022-09-23T21:40:10.699Z,15.20
2022-09-23T21:50:14.170Z,15.10
2022-09-23T22:00:16.258Z,14.90
2022-09-23T22:10:19.546Z,14.70
2022-09-23T22:20:21.458Z,14.60
2022-09-23T22:30:24.843Z,14.50
2022-09-23T22:40:27.054Z,14.40
2022-09-23T22:50:30.418Z,14.30
2022-09-23T23:00:32.336Z,14.10
2022-09-23T23:10:37.400Z,14.00
2022-09-23T23:20:39.331Z,13.80
2022-09-23T23:30:42.639Z,13.60
2022-09-23T23:40:44.662Z,13.50
2022-09-23T23:50:53.990Z,13.30
